sensor_id;sensor_type;location;lat;lon;timestamp;P1;durP1;ratioP1;P2;durP2;ratioP2
22922;SDS011;11627;51.322;22.816;2024-02-23T00:01:42;10.27;;;5.75;;
22922;SDS011;11627;51.322;22.816;2024-02-23T00:04:12;8.15;;;5.88;;
22922;SDS011;11627;51.322;22.816;2024-02-23T00:06:39;8.32;;;6.15;;
22922;SDS011;11627;51.322;22.816;2024-02-23T00:09:05;9.38;;;6.03;;
22922;SDS011;11627;51.322;22.816;2024-02-23T00:11:30;8.55;;;5.50;;
22922;SDS011;11627;51.322;22.816;2024-02-23T00:13:58;9.82;;;5.78;;
22922;SDS011;11627;51.322;22.816;2024-02-23T00:16:25;7.68;;;5.35;;
22922;SDS011;11627;51.322;22.816;2024-02-23T00:18:55;7.40;;;6.03;;
22922;SDS011;11627;51.322;22.816;2024-02-23T00:21:21;8.60;;;6.35;;
22922;SDS011;11627;51.322;22.816;2024-02-23T00:23:48;9.60;;;6.00;;
22922;SDS011;11627;51.322;22.816;2024-02-23T00:26:14;7.13;;;5.68;;
22922;SDS011;11627;51.322;22.816;2024-02-23T00:28:40;8.95;;;5.82;;
22922;SDS011;11627;51.322;22.816;2024-02-23T00:31:07;9.40;;;6.10;;
22922;SDS011;11627;51.322;22.816;2024-02-23T00:33:34;8.48;;;6.30;;
22922;SDS011;11627;51.322;22.816;2024-02-23T00:36:03;8.32;;;6.10;;
22922;SDS011;11627;51.322;22.816;2024-02-23T00:38:29;7.10;;;5.80;;
22922;SDS011;11627;51.322;22.816;2024-02-23T00:40:55;6.45;;;5.10;;
22922;SDS011;11627;51.322;22.816;2024-02-23T00:43:21;9.27;;;6.20;;
22922;SDS011;11627;51.322;22.816;2024-02-23T00:45:48;9.93;;;5.80;;
22922;SDS011;11627;51.322;22.816;2024-02-23T00:48:14;6.90;;;5.82;;
22922;SDS011;11627;51.322;22.816;2024-02-23T00:50:41;8.00;;;5.97;;
22922;SDS011;11627;51.322;22.816;2024-02-23T00:53:07;7.57;;;5.78;;
22922;SDS011;11627;51.322;22.816;2024-02-23T00:55:32;8.38;;;5.90;;
22922;SDS011;11627;51.322;22.816;2024-02-23T00:57:58;7.63;;;5.85;;
22922;SDS011;11627;51.322;22.816;2024-02-23T01:00:24;7.85;;;6.10;;
22922;SDS011;11627;51.322;22.816;2024-02-23T01:02:51;8.18;;;5.75;;
22922;SDS011;11627;51.322;22.816;2024-02-23T01:05:19;7.10;;;5.68;;
22922;SDS011;11627;51.322;22.816;2024-02-23T01:07:46;10.40;;;5.97;;
22922;SDS011;11627;51.322;22.816;2024-02-23T01:10:11;11.10;;;5.75;;
22922;SDS011;11627;51.322;22.816;2024-02-23T01:12:38;8.02;;;5.75;;
22922;SDS011;11627;51.322;22.816;2024-02-23T01:15:03;8.57;;;5.90;;
22922;SDS011;11627;51.322;22.816;2024-02-23T01:17:30;8.60;;;5.93;;
22922;SDS011;11627;51.322;22.816;2024-02-23T01:19:56;8.55;;;5.72;;
22922;SDS011;11627;51.322;22.816;2024-02-23T01:22:22;7.80;;;6.00;;
22922;SDS011;11627;51.322;22.816;2024-02-23T01:24:48;9.38;;;6.32;;
22922;SDS011;11627;51.322;22.816;2024-02-23T01:27:14;8.18;;;5.55;;
22922;SDS011;11627;51.322;22.816;2024-02-23T01:29:40;10.35;;;6.00;;
22922;SDS011;11627;51.322;22.816;2024-02-23T01:32:06;8.75;;;5.88;;
22922;SDS011;11627;51.322;22.816;2024-02-23T01:34:34;12.48;;;6.03;;
22922;SDS011;11627;51.322;22.816;2024-02-23T01:37:00;6.80;;;5.70;;
22922;SDS011;11627;51.322;22.816;2024-02-23T01:39:26;7.47;;;5.63;;
22922;SDS011;11627;51.322;22.816;2024-02-23T01:41:52;7.57;;;5.78;;
22922;SDS011;11627;51.322;22.816;2024-02-23T01:44:19;6.97;;;5.70;;
22922;SDS011;11627;51.322;22.816;2024-02-23T01:46:46;7.20;;;5.55;;
22922;SDS011;11627;51.322;22.816;2024-02-23T01:49:14;7.07;;;5.13;;
22922;SDS011;11627;51.322;22.816;2024-02-23T01:51:40;7.05;;;5.30;;
22922;SDS011;11627;51.322;22.816;2024-02-23T01:54:07;9.40;;;5.95;;
22922;SDS011;11627;51.322;22.816;2024-02-23T01:56:34;8.00;;;5.63;;
22922;SDS011;11627;51.322;22.816;2024-02-23T01:59:02;7.40;;;5.57;;
22922;SDS011;11627;51.322;22.816;2024-02-23T02:01:30;7.10;;;5.40;;
22922;SDS011;11627;51.322;22.816;2024-02-23T02:03:56;8.15;;;5.70;;
22922;SDS011;11627;51.322;22.816;2024-02-23T02:06:25;7.60;;;5.15;;
22922;SDS011;11627;51.322;22.816;2024-02-23T02:08:51;5.65;;;4.75;;
22922;SDS011;11627;51.322;22.816;2024-02-23T02:11:18;6.93;;;4.88;;
22922;SDS011;11627;51.322;22.816;2024-02-23T02:13:44;6.40;;;4.90;;
22922;SDS011;11627;51.322;22.816;2024-02-23T02:16:10;5.05;;;4.50;;
22922;SDS011;11627;51.322;22.816;2024-02-23T02:18:36;8.40;;;5.13;;
22922;SDS011;11627;51.322;22.816;2024-02-23T02:21:03;7.05;;;4.75;;
22922;SDS011;11627;51.322;22.816;2024-02-23T02:23:29;8.68;;;4.75;;
22922;SDS011;11627;51.322;22.816;2024-02-23T02:25:56;9.52;;;5.10;;
22922;SDS011;11627;51.322;22.816;2024-02-23T02:28:23;6.07;;;4.38;;
22922;SDS011;11627;51.322;22.816;2024-02-23T02:30:51;7.20;;;4.97;;
22922;SDS011;11627;51.322;22.816;2024-02-23T02:33:19;7.82;;;4.68;;
22922;SDS011;11627;51.322;22.816;2024-02-23T02:35:47;6.50;;;4.70;;
22922;SDS011;11627;51.322;22.816;2024-02-23T02:38:13;6.20;;;4.78;;
22922;SDS011;11627;51.322;22.816;2024-02-23T02:40:39;6.57;;;4.72;;
22922;SDS011;11627;51.322;22.816;2024-02-23T02:43:05;6.68;;;4.80;;
22922;SDS011;11627;51.322;22.816;2024-02-23T02:45:32;5.68;;;4.60;;
22922;SDS011;11627;51.322;22.816;2024-02-23T02:48:02;5.65;;;4.78;;
22922;SDS011;11627;51.322;22.816;2024-02-23T02:50:29;6.10;;;4.82;;
22922;SDS011;11627;51.322;22.816;2024-02-23T02:52:56;6.22;;;4.72;;
22922;SDS011;11627;51.322;22.816;2024-02-23T02:55:21;7.35;;;4.85;;
22922;SDS011;11627;51.322;22.816;2024-02-23T02:57:47;7.30;;;4.75;;
22922;SDS011;11627;51.322;22.816;2024-02-23T03:00:14;7.75;;;5.35;;
22922;SDS011;11627;51.322;22.816;2024-02-23T03:02:39;6.90;;;5.30;;
22922;SDS011;11627;51.322;22.816;2024-02-23T03:05:06;6.28;;;4.45;;
22922;SDS011;11627;51.322;22.816;2024-02-23T03:07:34;5.72;;;4.70;;
22922;SDS011;11627;51.322;22.816;2024-02-23T03:10:01;7.00;;;5.35;;
22922;SDS011;11627;51.322;22.816;2024-02-23T03:12:28;6.35;;;4.80;;
22922;SDS011;11627;51.322;22.816;2024-02-23T03:14:54;7.32;;;5.00;;
22922;SDS011;11627;51.322;22.816;2024-02-23T03:17:21;5.90;;;4.85;;
22922;SDS011;11627;51.322;22.816;2024-02-23T03:19:46;10.48;;;5.40;;
22922;SDS011;11627;51.322;22.816;2024-02-23T03:22:15;6.18;;;4.95;;
22922;SDS011;11627;51.322;22.816;2024-02-23T03:24:43;7.03;;;5.20;;
22922;SDS011;11627;51.322;22.816;2024-02-23T03:27:09;8.05;;;5.18;;
22922;SDS011;11627;51.322;22.816;2024-02-23T03:29:35;7.90;;;4.97;;
22922;SDS011;11627;51.322;22.816;2024-02-23T03:32:02;5.40;;;4.60;;
22922;SDS011;11627;51.322;22.816;2024-02-23T03:34:28;7.22;;;4.82;;
22922;SDS011;11627;51.322;22.816;2024-02-23T03:36:54;8.48;;;4.90;;
22922;SDS011;11627;51.322;22.816;2024-02-23T03:39:21;8.13;;;5.28;;
22922;SDS011;11627;51.322;22.816;2024-02-23T03:41:47;6.13;;;4.82;;
22922;SDS011;11627;51.322;22.816;2024-02-23T03:44:14;9.55;;;5.05;;
22922;SDS011;11627;51.322;22.816;2024-02-23T03:46:39;9.88;;;5.85;;
22922;SDS011;11627;51.322;22.816;2024-02-23T03:49:07;9.40;;;5.53;;
22922;SDS011;11627;51.322;22.816;2024-02-23T03:51:35;8.32;;;5.38;;
22922;SDS011;11627;51.322;22.816;2024-02-23T03:54:06;6.95;;;5.25;;
22922;SDS011;11627;51.322;22.816;2024-02-23T03:56:40;6.78;;;4.93;;
22922;SDS011;11627;51.322;22.816;2024-02-23T03:59:08;5.35;;;4.38;;
22922;SDS011;11627;51.322;22.816;2024-02-23T04:01:35;9.32;;;5.28;;
22922;SDS011;11627;51.322;22.816;2024-02-23T04:04:04;10.60;;;5.20;;
22922;SDS011;11627;51.322;22.816;2024-02-23T04:06:31;13.13;;;5.03;;
22922;SDS011;11627;51.322;22.816;2024-02-23T04:09:00;7.30;;;5.07;;
22922;SDS011;11627;51.322;22.816;2024-02-23T04:11:29;8.20;;;5.00;;
22922;SDS011;11627;51.322;22.816;2024-02-23T04:13:57;7.00;;;4.75;;
22922;SDS011;11627;51.322;22.816;2024-02-23T04:16:23;5.82;;;4.80;;
22922;SDS011;11627;51.322;22.816;2024-02-23T04:18:53;10.32;;;5.22;;
22922;SDS011;11627;51.322;22.816;2024-02-23T04:21:20;9.07;;;5.47;;
22922;SDS011;11627;51.322;22.816;2024-02-23T04:23:46;6.53;;;5.15;;
22922;SDS011;11627;51.322;22.816;2024-02-23T04:26:12;7.22;;;4.80;;
22922;SDS011;11627;51.322;22.816;2024-02-23T04:28:42;7.40;;;4.88;;
22922;SDS011;11627;51.322;22.816;2024-02-23T04:31:08;8.15;;;5.95;;
22922;SDS011;11627;51.322;22.816;2024-02-23T04:33:35;8.30;;;5.05;;
22922;SDS011;11627;51.322;22.816;2024-02-23T04:36:02;6.57;;;5.05;;
22922;SDS011;11627;51.322;22.816;2024-02-23T04:38:31;8.40;;;5.75;;
22922;SDS011;11627;51.322;22.816;2024-02-23T04:41:01;7.95;;;4.85;;
22922;SDS011;11627;51.322;22.816;2024-02-23T04:43:29;6.25;;;4.93;;
22922;SDS011;11627;51.322;22.816;2024-02-23T04:45:56;6.85;;;5.05;;
22922;SDS011;11627;51.322;22.816;2024-02-23T04:48:23;6.75;;;4.95;;
22922;SDS011;11627;51.322;22.816;2024-02-23T04:50:50;6.47;;;4.38;;
22922;SDS011;11627;51.322;22.816;2024-02-23T04:53:16;5.95;;;4.50;;
22922;SDS011;11627;51.322;22.816;2024-02-23T04:55:42;6.50;;;4.95;;
22922;SDS011;11627;51.322;22.816;2024-02-23T04:58:08;9.07;;;4.93;;
22922;SDS011;11627;51.322;22.816;2024-02-23T05:00:34;5.65;;;4.53;;
22922;SDS011;11627;51.322;22.816;2024-02-23T05:03:00;7.40;;;4.60;;
22922;SDS011;11627;51.322;22.816;2024-02-23T05:05:28;6.07;;;4.55;;
22922;SDS011;11627;51.322;22.816;2024-02-23T05:07:56;7.70;;;4.55;;
22922;SDS011;11627;51.322;22.816;2024-02-23T05:10:24;6.00;;;4.90;;
22922;SDS011;11627;51.322;22.816;2024-02-23T05:12:52;7.57;;;5.15;;
22922;SDS011;11627;51.322;22.816;2024-02-23T05:15:18;7.38;;;5.13;;
22922;SDS011;11627;51.322;22.816;2024-02-23T05:17:45;6.45;;;4.60;;
22922;SDS011;11627;51.322;22.816;2024-02-23T05:20:12;7.80;;;4.88;;
22922;SDS011;11627;51.322;22.816;2024-02-23T05:22:39;4.53;;;3.42;;
22922;SDS011;11627;51.322;22.816;2024-02-23T05:25:05;8.85;;;5.38;;
22922;SDS011;11627;51.322;22.816;2024-02-23T05:27:33;9.15;;;4.95;;
22922;SDS011;11627;51.322;22.816;2024-02-23T05:29:59;7.78;;;5.05;;
22922;SDS011;11627;51.322;22.816;2024-02-23T05:32:25;7.93;;;5.32;;
22922;SDS011;11627;51.322;22.816;2024-02-23T05:34:51;7.82;;;5.10;;
22922;SDS011;11627;51.322;22.816;2024-02-23T05:37:20;7.80;;;5.28;;
22922;SDS011;11627;51.322;22.816;2024-02-23T05:39:46;10.32;;;5.90;;
22922;SDS011;11627;51.322;22.816;2024-02-23T05:42:12;7.03;;;5.10;;
22922;SDS011;11627;51.322;22.816;2024-02-23T05:44:38;7.38;;;5.10;;
22922;SDS011;11627;51.322;22.816;2024-02-23T05:47:06;7.07;;;5.20;;
22922;SDS011;11627;51.322;22.816;2024-02-23T05:49:33;7.75;;;5.10;;
22922;SDS011;11627;51.322;22.816;2024-02-23T05:52:00;7.75;;;4.97;;
22922;SDS011;11627;51.322;22.816;2024-02-23T05:54:26;7.28;;;4.72;;
22922;SDS011;11627;51.322;22.816;2024-02-23T05:56:52;6.38;;;4.97;;
22922;SDS011;11627;51.322;22.816;2024-02-23T05:59:18;7.38;;;4.57;;
22922;SDS011;11627;51.322;22.816;2024-02-23T06:01:44;5.20;;;4.40;;
22922;SDS011;11627;51.322;22.816;2024-02-23T06:04:10;7.22;;;4.95;;
22922;SDS011;11627;51.322;22.816;2024-02-23T06:06:36;7.45;;;4.60;;
22922;SDS011;11627;51.322;22.816;2024-02-23T06:09:02;7.95;;;5.10;;
22922;SDS011;11627;51.322;22.816;2024-02-23T06:11:32;7.70;;;4.75;;
22922;SDS011;11627;51.322;22.816;2024-02-23T06:13:57;6.05;;;4.30;;
22922;SDS011;11627;51.322;22.816;2024-02-23T06:16:24;7.22;;;4.28;;
22922;SDS011;11627;51.322;22.816;2024-02-23T06:18:49;6.55;;;4.38;;
22922;SDS011;11627;51.322;22.816;2024-02-23T06:21:16;7.35;;;4.35;;
22922;SDS011;11627;51.322;22.816;2024-02-23T06:23:44;7.03;;;4.13;;
22922;SDS011;11627;51.322;22.816;2024-02-23T06:26:10;6.78;;;4.35;;
22922;SDS011;11627;51.322;22.816;2024-02-23T06:28:36;7.47;;;4.30;;
22922;SDS011;11627;51.322;22.816;2024-02-23T06:31:06;7.07;;;4.25;;
22922;SDS011;11627;51.322;22.816;2024-02-23T06:33:34;5.72;;;4.25;;
22922;SDS011;11627;51.322;22.816;2024-02-23T06:36:00;5.75;;;4.22;;
22922;SDS011;11627;51.322;22.816;2024-02-23T06:38:29;3.83;;;2.78;;
22922;SDS011;11627;51.322;22.816;2024-02-23T06:40:58;5.38;;;2.80;;
22922;SDS011;11627;51.322;22.816;2024-02-23T06:43:24;8.32;;;4.30;;
22922;SDS011;11627;51.322;22.816;2024-02-23T06:45:50;6.43;;;3.47;;
22922;SDS011;11627;51.322;22.816;2024-02-23T06:48:16;5.80;;;3.50;;
22922;SDS011;11627;51.322;22.816;2024-02-23T06:50:42;4.38;;;3.17;;
22922;SDS011;11627;51.322;22.816;2024-02-23T06:53:08;3.92;;;2.72;;
22922;SDS011;11627;51.322;22.816;2024-02-23T06:55:35;5.70;;;4.00;;
22922;SDS011;11627;51.322;22.816;2024-02-23T06:58:01;5.25;;;3.80;;
22922;SDS011;11627;51.322;22.816;2024-02-23T07:00:30;5.82;;;3.85;;
22922;SDS011;11627;51.322;22.816;2024-02-23T07:02:56;5.22;;;3.95;;
22922;SDS011;11627;51.322;22.816;2024-02-23T07:05:25;6.45;;;3.70;;
22922;SDS011;11627;51.322;22.816;2024-02-23T07:07:51;6.53;;;3.88;;
22922;SDS011;11627;51.322;22.816;2024-02-23T07:10:17;4.57;;;3.25;;
22922;SDS011;11627;51.322;22.816;2024-02-23T07:12:43;5.72;;;3.70;;
22922;SDS011;11627;51.322;22.816;2024-02-23T07:15:09;5.35;;;3.35;;
22922;SDS011;11627;51.322;22.816;2024-02-23T07:17:35;5.55;;;3.53;;
22922;SDS011;11627;51.322;22.816;2024-02-23T07:20:02;6.00;;;3.90;;
22922;SDS011;11627;51.322;22.816;2024-02-23T07:22:31;5.22;;;3.70;;
22922;SDS011;11627;51.322;22.816;2024-02-23T07:24:57;5.15;;;3.42;;
22922;SDS011;11627;51.322;22.816;2024-02-23T07:27:23;5.82;;;3.95;;
22922;SDS011;11627;51.322;22.816;2024-02-23T07:29:52;5.93;;;3.88;;
22922;SDS011;11627;51.322;22.816;2024-02-23T07:32:18;6.88;;;3.50;;
22922;SDS011;11627;51.322;22.816;2024-02-23T07:34:44;5.70;;;4.00;;
22922;SDS011;11627;51.322;22.816;2024-02-23T07:37:13;8.23;;;5.30;;
22922;SDS011;11627;51.322;22.816;2024-02-23T07:39:39;10.05;;;4.70;;
22922;SDS011;11627;51.322;22.816;2024-02-23T07:42:05;5.13;;;3.70;;
22922;SDS011;11627;51.322;22.816;2024-02-23T07:44:31;5.85;;;3.80;;
22922;SDS011;11627;51.322;22.816;2024-02-23T07:46:58;6.50;;;4.18;;
22922;SDS011;11627;51.322;22.816;2024-02-23T07:49:25;6.20;;;2.75;;
22922;SDS011;11627;51.322;22.816;2024-02-23T07:51:53;4.35;;;3.45;;
22922;SDS011;11627;51.322;22.816;2024-02-23T07:54:19;2.70;;;2.42;;
22922;SDS011;11627;51.322;22.816;2024-02-23T07:56:45;6.57;;;4.05;;
22922;SDS011;11627;51.322;22.816;2024-02-23T07:59:11;9.13;;;4.30;;
22922;SDS011;11627;51.322;22.816;2024-02-23T08:01:37;6.65;;;4.28;;
22922;SDS011;11627;51.322;22.816;2024-02-23T08:04:07;5.85;;;3.55;;
22922;SDS011;11627;51.322;22.816;2024-02-23T08:06:34;6.13;;;4.60;;
22922;SDS011;11627;51.322;22.816;2024-02-23T08:09:00;8.55;;;4.80;;
22922;SDS011;11627;51.322;22.816;2024-02-23T08:11:26;7.13;;;4.50;;
22922;SDS011;11627;51.322;22.816;2024-02-23T08:13:51;8.98;;;3.80;;
22922;SDS011;11627;51.322;22.816;2024-02-23T08:16:18;6.47;;;4.18;;
22922;SDS011;11627;51.322;22.816;2024-02-23T08:18:43;9.73;;;5.15;;
22922;SDS011;11627;51.322;22.816;2024-02-23T08:21:10;7.78;;;4.88;;
22922;SDS011;11627;51.322;22.816;2024-02-23T08:23:36;11.30;;;5.63;;
22922;SDS011;11627;51.322;22.816;2024-02-23T08:26:02;9.20;;;5.20;;
22922;SDS011;11627;51.322;22.816;2024-02-23T08:28:28;8.10;;;5.35;;
22922;SDS011;11627;51.322;22.816;2024-02-23T08:30:55;8.38;;;4.55;;
22922;SDS011;11627;51.322;22.816;2024-02-23T08:33:21;6.80;;;5.20;;
22922;SDS011;11627;51.322;22.816;2024-02-23T08:35:48;7.22;;;4.72;;
22922;SDS011;11627;51.322;22.816;2024-02-23T08:38:15;6.53;;;4.80;;
22922;SDS011;11627;51.322;22.816;2024-02-23T08:40:41;8.40;;;5.40;;
22922;SDS011;11627;51.322;22.816;2024-02-23T08:43:07;6.53;;;4.72;;
22922;SDS011;11627;51.322;22.816;2024-02-23T08:45:33;10.73;;;5.40;;
22922;SDS011;11627;51.322;22.816;2024-02-23T08:48:00;6.68;;;4.43;;
22922;SDS011;11627;51.322;22.816;2024-02-23T08:50:25;5.57;;;3.92;;
22922;SDS011;11627;51.322;22.816;2024-02-23T08:52:52;7.85;;;4.88;;
22922;SDS011;11627;51.322;22.816;2024-02-23T08:55:19;7.80;;;5.25;;
22922;SDS011;11627;51.322;22.816;2024-02-23T08:57:46;8.35;;;5.13;;
22922;SDS011;11627;51.322;22.816;2024-02-23T09:00:12;9.98;;;5.55;;
22922;SDS011;11627;51.322;22.816;2024-02-23T09:02:39;8.40;;;5.13;;
22922;SDS011;11627;51.322;22.816;2024-02-23T09:05:07;9.07;;;5.43;;
22922;SDS011;11627;51.322;22.816;2024-02-23T09:07:36;8.00;;;5.25;;
22922;SDS011;11627;51.322;22.816;2024-02-23T09:10:02;9.15;;;5.03;;
22922;SDS011;11627;51.322;22.816;2024-02-23T09:12:30;7.38;;;5.57;;
22922;SDS011;11627;51.322;22.816;2024-02-23T09:14:57;12.38;;;5.80;;
22922;SDS011;11627;51.322;22.816;2024-02-23T09:17:23;10.68;;;5.25;;
22922;SDS011;11627;51.322;22.816;2024-02-23T09:19:50;7.25;;;4.93;;
22922;SDS011;11627;51.322;22.816;2024-02-23T09:22:16;8.02;;;5.28;;
22922;SDS011;11627;51.322;22.816;2024-02-23T09:24:42;8.85;;;5.15;;
22922;SDS011;11627;51.322;22.816;2024-02-23T09:27:09;8.68;;;5.00;;
22922;SDS011;11627;51.322;22.816;2024-02-23T09:29:36;11.70;;;6.38;;
22922;SDS011;11627;51.322;22.816;2024-02-23T09:32:03;10.55;;;6.43;;
22922;SDS011;11627;51.322;22.816;2024-02-23T09:34:30;12.77;;;7.60;;
22922;SDS011;11627;51.322;22.816;2024-02-23T09:36:56;8.00;;;4.80;;
22922;SDS011;11627;51.322;22.816;2024-02-23T09:39:22;8.38;;;5.75;;
22922;SDS011;11627;51.322;22.816;2024-02-23T09:41:53;8.20;;;5.15;;
22922;SDS011;11627;51.322;22.816;2024-02-23T09:44:26;8.10;;;5.50;;
22922;SDS011;11627;51.322;22.816;2024-02-23T09:47:00;8.75;;;5.45;;
22922;SDS011;11627;51.322;22.816;2024-02-23T09:49:38;7.35;;;5.07;;
22922;SDS011;11627;51.322;22.816;2024-02-23T09:52:09;8.45;;;5.13;;
22922;SDS011;11627;51.322;22.816;2024-02-23T09:54:39;7.55;;;5.32;;
22922;SDS011;11627;51.322;22.816;2024-02-23T09:57:07;11.93;;;6.43;;
22922;SDS011;11627;51.322;22.816;2024-02-23T09:59:35;8.15;;;5.35;;
22922;SDS011;11627;51.322;22.816;2024-02-23T10:02:10;7.47;;;5.50;;
22922;SDS011;11627;51.322;22.816;2024-02-23T10:04:43;8.43;;;5.97;;
22922;SDS011;11627;51.322;22.816;2024-02-23T10:07:09;7.93;;;5.55;;
22922;SDS011;11627;51.322;22.816;2024-02-23T10:09:36;8.60;;;5.43;;
22922;SDS011;11627;51.322;22.816;2024-02-23T10:12:02;8.85;;;5.72;;
22922;SDS011;11627;51.322;22.816;2024-02-23T10:14:30;8.15;;;5.07;;
22922;SDS011;11627;51.322;22.816;2024-02-23T10:16:55;9.25;;;5.85;;
22922;SDS011;11627;51.322;22.816;2024-02-23T10:19:23;9.30;;;6.05;;
22922;SDS011;11627;51.322;22.816;2024-02-23T10:21:55;8.55;;;5.70;;
22922;SDS011;11627;51.322;22.816;2024-02-23T10:24:22;11.32;;;6.95;;
22922;SDS011;11627;51.322;22.816;2024-02-23T10:26:51;8.77;;;6.00;;
22922;SDS011;11627;51.322;22.816;2024-02-23T10:29:20;8.93;;;5.95;;
22922;SDS011;11627;51.322;22.816;2024-02-23T10:31:47;8.60;;;5.82;;
22922;SDS011;11627;51.322;22.816;2024-02-23T10:34:18;10.60;;;6.18;;
22922;SDS011;11627;51.322;22.816;2024-02-23T10:36:45;9.63;;;6.15;;
22922;SDS011;11627;51.322;22.816;2024-02-23T10:39:16;7.70;;;5.50;;
22922;SDS011;11627;51.322;22.816;2024-02-23T10:41:51;9.98;;;5.72;;
22922;SDS011;11627;51.322;22.816;2024-02-23T10:44:27;7.28;;;5.80;;
22922;SDS011;11627;51.322;22.816;2024-02-23T10:46:54;9.05;;;5.72;;
22922;SDS011;11627;51.322;22.816;2024-02-23T10:49:25;7.85;;;5.55;;
22922;SDS011;11627;51.322;22.816;2024-02-23T10:51:54;8.23;;;5.28;;
22922;SDS011;11627;51.322;22.816;2024-02-23T10:54:22;12.45;;;9.38;;
22922;SDS011;11627;51.322;22.816;2024-02-23T10:56:50;17.55;;;14.35;;
22922;SDS011;11627;51.322;22.816;2024-02-23T10:59:19;7.70;;;5.70;;
22922;SDS011;11627;51.322;22.816;2024-02-23T11:01:51;6.63;;;4.82;;
22922;SDS011;11627;51.322;22.816;2024-02-23T11:04:35;7.50;;;5.40;;
22922;SDS011;11627;51.322;22.816;2024-02-23T11:07:01;8.68;;;5.38;;
22922;SDS011;11627;51.322;22.816;2024-02-23T11:09:32;7.85;;;5.03;;
22922;SDS011;11627;51.322;22.816;2024-02-23T11:12:03;11.75;;;5.78;;
22922;SDS011;11627;51.322;22.816;2024-02-23T11:14:36;9.82;;;5.57;;
22922;SDS011;11627;51.322;22.816;2024-02-23T11:17:04;7.63;;;5.50;;
22922;SDS011;11627;51.322;22.816;2024-02-23T11:19:39;7.25;;;4.97;;
22922;SDS011;11627;51.322;22.816;2024-02-23T11:22:10;8.23;;;5.22;;
22922;SDS011;11627;51.322;22.816;2024-02-23T11:24:42;7.45;;;5.30;;
22922;SDS011;11627;51.322;22.816;2024-02-23T11:27:15;8.15;;;5.75;;
22922;SDS011;11627;51.322;22.816;2024-02-23T11:29:43;8.35;;;5.65;;
22922;SDS011;11627;51.322;22.816;2024-02-23T11:32:15;8.95;;;5.13;;
22922;SDS011;11627;51.322;22.816;2024-02-23T11:34:55;7.63;;;5.00;;
22922;SDS011;11627;51.322;22.816;2024-02-23T11:37:27;7.13;;;5.32;;
22922;SDS011;11627;51.322;22.816;2024-02-23T11:39:54;8.63;;;4.25;;
22922;SDS011;11627;51.322;22.816;2024-02-23T11:42:23;7.32;;;4.88;;
22922;SDS011;11627;51.322;22.816;2024-02-23T11:44:50;6.05;;;4.53;;
22922;SDS011;11627;51.322;22.816;2024-02-23T11:47:20;8.15;;;5.13;;
22922;SDS011;11627;51.322;22.816;2024-02-23T11:49:46;5.70;;;3.78;;
22922;SDS011;11627;51.322;22.816;2024-02-23T11:52:12;5.97;;;3.92;;
22922;SDS011;11627;51.322;22.816;2024-02-23T11:54:37;7.13;;;4.90;;
22922;SDS011;11627;51.322;22.816;2024-02-23T11:57:03;8.60;;;5.10;;
22922;SDS011;11627;51.322;22.816;2024-02-23T11:59:32;11.02;;;5.75;;
22922;SDS011;11627;51.322;22.816;2024-02-23T12:01:57;8.98;;;5.30;;
22922;SDS011;11627;51.322;22.816;2024-02-23T12:04:26;7.13;;;5.10;;
22922;SDS011;11627;51.322;22.816;2024-02-23T12:06:54;8.55;;;5.28;;
22922;SDS011;11627;51.322;22.816;2024-02-23T12:09:21;10.00;;;6.05;;
22922;SDS011;11627;51.322;22.816;2024-02-23T12:11:47;6.95;;;5.22;;
22922;SDS011;11627;51.322;22.816;2024-02-23T12:14:15;7.35;;;5.20;;
22922;SDS011;11627;51.322;22.816;2024-02-23T12:16:44;8.57;;;5.72;;
22922;SDS011;11627;51.322;22.816;2024-02-23T12:19:10;8.02;;;5.50;;
22922;SDS011;11627;51.322;22.816;2024-02-23T12:21:38;6.57;;;5.00;;
22922;SDS011;11627;51.322;22.816;2024-02-23T12:24:05;8.20;;;5.55;;
22922;SDS011;11627;51.322;22.816;2024-02-23T12:26:33;7.82;;;5.30;;
22922;SDS011;11627;51.322;22.816;2024-02-23T12:29:02;7.68;;;5.43;;
22922;SDS011;11627;51.322;22.816;2024-02-23T12:31:33;9.23;;;5.75;;
22922;SDS011;11627;51.322;22.816;2024-02-23T12:34:00;9.10;;;5.70;;
22922;SDS011;11627;51.322;22.816;2024-02-23T12:36:26;7.47;;;5.82;;
22922;SDS011;11627;51.322;22.816;2024-02-23T12:39:02;8.90;;;5.82;;
22922;SDS011;11627;51.322;22.816;2024-02-23T12:41:30;11.27;;;5.93;;
22922;SDS011;11627;51.322;22.816;2024-02-23T12:43:58;9.88;;;5.80;;
22922;SDS011;11627;51.322;22.816;2024-02-23T12:46:25;9.02;;;6.28;;
22922;SDS011;11627;51.322;22.816;2024-02-23T12:48:51;8.77;;;5.82;;
22922;SDS011;11627;51.322;22.816;2024-02-23T12:51:18;9.20;;;5.53;;
22922;SDS011;11627;51.322;22.816;2024-02-23T12:53:44;9.00;;;6.00;;
22922;SDS011;11627;51.322;22.816;2024-02-23T12:56:12;8.52;;;5.80;;
22922;SDS011;11627;51.322;22.816;2024-02-23T12:58:43;9.35;;;6.13;;
22922;SDS011;11627;51.322;22.816;2024-02-23T13:01:11;9.63;;;5.57;;
22922;SDS011;11627;51.322;22.816;2024-02-23T13:03:39;7.70;;;5.68;;
22922;SDS011;11627;51.322;22.816;2024-02-23T13:06:06;8.70;;;5.70;;
22922;SDS011;11627;51.322;22.816;2024-02-23T13:08:33;10.00;;;6.43;;
22922;SDS011;11627;51.322;22.816;2024-02-23T13:10:59;10.60;;;5.88;;
22922;SDS011;11627;51.322;22.816;2024-02-23T13:13:29;7.07;;;5.43;;
22922;SDS011;11627;51.322;22.816;2024-02-23T13:15:56;12.15;;;6.00;;
22922;SDS011;11627;51.322;22.816;2024-02-23T13:18:22;9.18;;;6.15;;
22922;SDS011;11627;51.322;22.816;2024-02-23T13:20:48;8.95;;;6.20;;
22922;SDS011;11627;51.322;22.816;2024-02-23T13:23:14;8.70;;;6.05;;
22922;SDS011;11627;51.322;22.816;2024-02-23T13:25:41;7.85;;;5.30;;
22922;SDS011;11627;51.322;22.816;2024-02-23T13:28:08;12.63;;;5.75;;
22922;SDS011;11627;51.322;22.816;2024-02-23T13:30:35;10.27;;;6.15;;
22922;SDS011;11627;51.322;22.816;2024-02-23T13:33:03;10.95;;;6.63;;
22922;SDS011;11627;51.322;22.816;2024-02-23T13:35:31;8.13;;;5.80;;
22922;SDS011;11627;51.322;22.816;2024-02-23T13:37:58;9.38;;;6.05;;
22922;SDS011;11627;51.322;22.816;2024-02-23T13:40:24;8.35;;;6.05;;
22922;SDS011;11627;51.322;22.816;2024-02-23T13:42:52;10.88;;;5.90;;
22922;SDS011;11627;51.322;22.816;2024-02-23T13:45:20;9.07;;;6.45;;
22922;SDS011;11627;51.322;22.816;2024-02-23T13:48:01;8.98;;;5.88;;
22922;SDS011;11627;51.322;22.816;2024-02-23T13:50:30;8.45;;;6.03;;
22922;SDS011;11627;51.322;22.816;2024-02-23T13:52:57;9.63;;;6.60;;
22922;SDS011;11627;51.322;22.816;2024-02-23T13:55:23;7.53;;;5.80;;
22922;SDS011;11627;51.322;22.816;2024-02-23T13:57:49;10.30;;;6.53;;
22922;SDS011;11627;51.322;22.816;2024-02-23T14:00:16;9.63;;;6.22;;
22922;SDS011;11627;51.322;22.816;2024-02-23T14:02:45;8.25;;;5.78;;
22922;SDS011;11627;51.322;22.816;2024-02-23T14:05:12;8.68;;;5.50;;
22922;SDS011;11627;51.322;22.816;2024-02-23T14:07:40;9.65;;;6.18;;
22922;SDS011;11627;51.322;22.816;2024-02-23T14:10:06;9.77;;;6.28;;
22922;SDS011;11627;51.322;22.816;2024-02-23T14:12:33;11.00;;;5.82;;
22922;SDS011;11627;51.322;22.816;2024-02-23T14:14:59;12.68;;;6.97;;
22922;SDS011;11627;51.322;22.816;2024-02-23T14:17:26;9.88;;;6.38;;
22922;SDS011;11627;51.322;22.816;2024-02-23T14:19:52;13.20;;;6.90;;
22922;SDS011;11627;51.322;22.816;2024-02-23T14:22:19;10.82;;;6.80;;
22922;SDS011;11627;51.322;22.816;2024-02-23T14:24:46;10.18;;;6.45;;
22922;SDS011;11627;51.322;22.816;2024-02-23T14:27:12;11.02;;;6.55;;
22922;SDS011;11627;51.322;22.816;2024-02-23T14:29:38;9.48;;;6.60;;
22922;SDS011;11627;51.322;22.816;2024-02-23T14:32:04;8.73;;;6.32;;
22922;SDS011;11627;51.322;22.816;2024-02-23T14:34:30;9.00;;;6.40;;